Time;durP1;ratioP1;P1;durP2;ratioP2;P2;SDS_P1;SDS_P2;PMS_P1;PMS_P2;Temp;Humidity;BMP_temperature;BMP_pressure;BME280_temperature;BME280_humidity;BME280_pressure;Samples;Min_cycle;Max_cycle;Signal;HPM_P1;HPM_P2
2023/09/29 00:01:39;;;;;;;15.67;6.90;;;;;;;15.38;100.00;101318.28;6218352;23;20008;-75
2023/09/29 00:04:05;;;;;;;15.05;7.30;;;;;;;15.34;100.00;101308.19;6214100;23;20768;-76
2023/09/29 00:06:34;;;;;;;16.38;6.72;;;;;;;15.36;100.00;101308.78;6218932;23;20040;-77
2023/09/29 00:12:21;;;;;;;16.92;7.03;;;;;;;15.40;100.00;101318.03;6214261;23;20051;-76
2023/09/29 00:14:46;;;;;;;17.73;6.63;;;;;;;15.36;100.00;101317.69;6187350;23;20000;-76
2023/09/29 00:20:37;;;;;;;14.70;6.60;;;;;;;15.33;100.00;101317.34;6214456;23;20014;-76
2023/09/29 00:23:02;;;;;;;17.20;6.50;;;;;;;15.32;100.00;101312.97;6214070;23;20004;-76
2023/09/29 00:25:28;;;;;;;15.63;7.25;;;;;;;15.36;100.00;101314.19;6219092;23;20043;-76
2023/09/29 00:31:15;;;;;;;15.07;6.68;;;;;;;15.42;100.00;101316.75;6214146;23;20058;-75
2023/09/29 00:33:41;;;;;;;14.98;7.03;;;;;;;15.46;100.00;101306.31;6187555;23;20008;-76
2023/09/29 00:36:07;;;;;;;20.50;7.15;;;;;;;15.51;100.00;101306.44;6217658;23;20015;-76
2023/09/29 00:38:33;;;;;;;16.35;6.90;;;;;;;15.54;100.00;101316.72;6188166;23;20043;-76
2023/09/29 00:44:20;;;;;;;17.58;6.95;;;;;;;15.59;100.00;101306.09;6214121;23;20018;-76
2023/09/29 00:46:46;;;;;;;22.10;7.40;;;;;;;15.64;100.00;101311.63;6213872;23;20040;-76
2023/09/29 00:52:37;;;;;;;17.33;7.43;;;;;;;15.71;100.00;101289.91;6213911;23;20020;-76
2023/09/29 00:55:11;;;;;;;14.85;6.82;;;;;;;15.76;100.00;101300.81;6218777;23;20016;-75
2023/09/29 00:57:40;;;;;;;12.40;5.97;;;;;;;15.79;100.00;101297.63;6213953;23;20012;-75
2023/09/29 01:00:29;;;;;;;11.30;6.70;;;;;;;15.77;100.00;101295.19;6214816;23;20013;-76
2023/09/29 01:06:17;;;;;;;15.30;7.00;;;;;;;15.86;100.00;101292.09;6214696;23;20015;-76
2023/09/29 01:08:44;;;;;;;13.40;6.43;;;;;;;15.89;100.00;101295.16;6218138;23;20008;-76
2023/09/29 01:11:10;;;;;;;18.60;7.05;;;;;;;15.94;100.00;101289.88;6187372;23;20127;-76
2023/09/29 01:13:40;;;;;;;13.77;6.45;;;;;;;15.91;100.00;101282.28;6218307;23;20064;-76
2023/09/29 01:16:06;;;;;;;16.30;6.70;;;;;;;15.90;100.00;101286.03;6187191;23;20008;-77
2023/09/29 01:18:32;;;;;;;14.68;6.65;;;;;;;15.94;100.00;101280.97;6214096;23;20013;-76
2023/09/29 01:20:58;;;;;;;10.45;6.30;;;;;;;15.91;100.00;101279.56;6192062;23;20012;-75
2023/09/29 01:23:24;;;;;;;12.85;6.50;;;;;;;15.94;100.00;101281.78;6213785;23;20004;-76
2023/09/29 01:25:49;;;;;;;11.50;6.13;;;;;;;15.96;100.00;101268.06;6218447;23;20016;-75
2023/09/29 01:28:14;;;;;;;10.75;5.95;;;;;;;15.99;100.00;101270.28;6187007;23;20000;-76
2023/09/29 01:30:44;;;;;;;11.45;6.10;;;;;;;15.99;100.00;101267.59;6213782;23;20012;-75
2023/09/29 01:33:10;;;;;;;11.90;5.65;;;;;;;16.00;100.00;101263.81;6192205;23;20343;-76
2023/09/29 01:35:35;;;;;;;13.38;6.30;;;;;;;16.00;100.00;101255.72;6213733;23;20013;-75
2023/09/29 01:38:00;;;;;;;10.57;5.67;;;;;;;16.00;100.00;101253.84;6218546;23;20008;-76
2023/09/29 01:43:47;;;;;;;17.90;5.80;;;;;;;16.04;100.00;101240.69;6218660;23;20069;-76
2023/09/29 01:46:15;;;;;;;14.53;5.43;;;;;;;16.02;100.00;101243.63;6214059;23;20035;-74
2023/09/29 01:48:41;;;;;;;9.90;5.00;;;;;;;16.03;100.00;101239.88;6213997;23;20259;-75
2023/09/29 01:51:06;;;;;;;7.47;4.82;;;;;;;16.06;100.00;101249.38;6218760;23;20088;-75
2023/09/29 01:53:31;;;;;;;14.90;5.45;;;;;;;16.05;100.00;101239.63;6213835;23;20008;-74
2023/09/29 01:55:57;;;;;;;8.80;4.53;;;;;;;16.11;100.00;101244.06;6214924;23;20002;-75
2023/09/29 01:58:22;;;;;;;7.82;4.72;;;;;;;16.11;100.00;101231.41;6217473;23;20012;-75
2023/09/29 02:00:48;;;;;;;7.28;4.30;;;;;;;16.11;100.00;101225.19;6187206;23;20019;-75
2023/09/29 02:03:13;;;;;;;8.43;4.82;;;;;;;16.13;100.00;101230.34;6192151;23;20013;-75
2023/09/29 02:05:39;;;;;;;9.77;5.10;;;;;;;16.15;100.00;101233.59;6187009;23;20013;-75
2023/09/29 02:08:06;;;;;;;9.15;4.70;;;;;;;16.16;100.00;101216.34;6187187;23;20612;-75
2023/09/29 02:10:31;;;;;;;6.07;4.40;;;;;;;16.18;100.00;101220.44;6218424;23;20008;-75
2023/09/29 02:16:19;;;;;;;7.32;4.75;;;;;;;16.19;100.00;101222.13;6213601;23;20456;-75
2023/09/29 02:18:46;;;;;;;10.57;4.40;;;;;;;16.21;100.00;101232.66;6213703;23;20009;-75
2023/09/29 02:21:20;;;;;;;6.43;4.28;;;;;;;16.23;100.00;101233.25;6191795;23;20087;-75
2023/09/29 02:27:07;;;;;;;9.02;4.30;;;;;;;16.17;100.00;101224.22;6213585;23;20066;-75
2023/09/29 02:29:32;;;;;;;13.27;4.23;;;;;;;16.21;100.00;101221.88;6213276;23;20075;-74
2023/09/29 02:31:57;;;;;;;9.15;4.53;;;;;;;16.21;100.00;101211.09;6214186;23;20244;-74
2023/09/29 02:37:45;;;;;;;8.00;4.10;;;;;;;16.26;100.00;101211.16;6213697;23;20290;-76
2023/09/29 02:40:11;;;;;;;6.45;3.50;;;;;;;16.31;100.00;101203.16;6218152;23;20112;-75
2023/09/29 02:42:37;;;;;;;9.73;4.65;;;;;;;16.33;100.00;101192.94;6186713;23;20016;-75
2023/09/29 02:45:03;;;;;;;8.52;4.40;;;;;;;16.32;100.00;101188.59;6218178;23;20016;-76
2023/09/29 02:47:30;;;;;;;8.10;3.83;;;;;;;16.34;100.00;101183.78;6186602;23;20012;-75
2023/09/29 02:49:56;;;;;;;9.30;4.40;;;;;;;16.41;100.00;101185.25;6186687;23;20008;-76
2023/09/29 02:52:22;;;;;;;10.55;3.95;;;;;;;16.40;100.00;101182.78;6218278;23;20012;-75
2023/09/29 02:54:47;;;;;;;7.70;4.05;;;;;;;16.39;100.00;101183.84;6213395;23;20501;-75
2023/09/29 02:57:14;;;;;;;6.70;3.45;;;;;;;16.39;100.00;101181.16;6216754;23;20100;-75
2023/09/29 02:59:39;;;;;;;7.78;4.10;;;;;;;16.43;100.00;101180.41;6214210;23;20373;-75
2023/09/29 03:02:05;;;;;;;8.77;3.83;;;;;;;16.39;100.00;101160.38;6186536;23;20116;-75
2023/09/29 03:04:30;;;;;;;6.72;3.70;;;;;;;16.45;100.00;101169.38;6191657;23;20244;-76
2023/09/29 03:10:17;;;;;;;8.60;4.32;;;;;;;16.55;100.00;101171.44;6213098;23;20251;-75
2023/09/29 03:12:44;;;;;;;6.20;3.53;;;;;;;16.55;100.00;101166.88;6186533;23;20084;-75
2023/09/29 03:15:11;;;;;;;9.32;3.90;;;;;;;16.57;100.00;101172.84;6213287;23;20012;-75
2023/09/29 03:17:37;;;;;;;7.25;3.97;;;;;;;16.58;100.00;101177.16;6191407;23;20016;-75
2023/09/29 03:20:09;;;;;;;6.55;3.47;;;;;;;16.59;100.00;101169.88;6213063;23;20084;-75
2023/09/29 03:22:37;;;;;;;4.60;3.40;;;;;;;16.61;100.00;101165.06;6217908;23;20172;-75
2023/09/29 03:25:03;;;;;;;10.45;4.43;;;;;;;16.61;100.00;101168.56;6186430;23;20011;-76
2023/09/29 03:27:29;;;;;;;6.03;4.22;;;;;;;16.59;100.00;101159.09;6213008;23;20087;-76
2023/09/29 03:29:54;;;;;;;8.77;4.50;;;;;;;16.57;100.00;101150.41;6217742;23;20032;-75
2023/09/29 03:32:19;;;;;;;7.00;3.93;;;;;;;16.55;100.00;101153.38;6186525;23;20299;-75
2023/09/29 03:34:44;;;;;;;8.77;4.53;;;;;;;16.51;100.00;101140.59;6215802;23;20719;-75
2023/09/29 03:37:10;;;;;;;8.27;3.80;;;;;;;16.56;100.00;101152.31;6215806;23;20242;-76
2023/09/29 03:39:36;;;;;;;6.85;3.80;;;;;;;16.53;100.00;101135.78;6187761;23;20306;-75
2023/09/29 03:42:01;;;;;;;11.87;4.43;;;;;;;16.53;100.00;101128.50;6219324;23;20094;-75
2023/09/29 03:44:27;;;;;;;6.93;4.30;;;;;;;16.54;100.00;101116.63;6214297;23;20243;-75
2023/09/29 03:46:53;;;;;;;6.78;3.70;;;;;;;16.55;100.00;101112.06;6188783;23;20251;-77
2023/09/29 03:49:19;;;;;;;8.60;4.10;;;;;;;16.56;100.00;101125.31;6217564;23;20048;-76
2023/09/29 03:51:44;;;;;;;6.80;3.92;;;;;;;16.53;100.00;101120.41;6214499;23;20015;-75
2023/09/29 03:54:10;;;;;;;8.25;4.22;;;;;;;16.54;100.00;101113.94;6192691;23;20088;-75
2023/09/29 03:56:35;;;;;;;6.90;3.80;;;;;;;16.56;100.00;101117.19;6187495;23;20011;-76
2023/09/29 03:59:00;;;;;;;7.88;4.00;;;;;;;16.56;100.00;101111.81;6187425;23;20619;-75
2023/09/29 04:04:47;;;;;;;6.45;4.18;;;;;;;16.55;100.00;101118.25;6214174;23;20257;-76
2023/09/29 04:07:14;;;;;;;7.57;4.07;;;;;;;16.56;100.00;101108.28;6192421;23;20087;-77
2023/09/29 04:09:39;;;;;;;6.03;3.70;;;;;;;16.59;100.00;101097.00;6187612;23;20767;-75
2023/09/29 04:12:05;;;;;;;4.63;3.47;;;;;;;16.61;100.00;101103.78;6216712;23;20020;-76
2023/09/29 04:14:30;;;;;;;6.65;3.95;;;;;;;16.63;100.00;101092.72;6216029;23;20008;-75
2023/09/29 04:16:55;;;;;;;5.33;3.43;;;;;;;16.68;100.00;101111.72;6214188;23;20442;-76
2023/09/29 04:19:24;;;;;;;6.50;4.10;;;;;;;16.70;100.00;101110.41;6192651;23;20251;-75
2023/09/29 04:21:49;;;;;;;5.80;3.72;;;;;;;16.73;100.00;101107.22;6213943;23;20005;-74
2023/09/29 04:27:37;;;;;;;8.70;3.90;;;;;;;16.82;100.00;101096.81;6214159;23;20723;-74
2023/09/29 04:30:03;;;;;;;7.07;3.78;;;;;;;16.84;100.00;101091.97;6191322;23;20023;-76
2023/09/29 04:32:29;;;;;;;6.10;3.65;;;;;;;16.83;100.00;101089.53;6214196;23;20434;-76
2023/09/29 04:34:54;;;;;;;7.30;3.65;;;;;;;16.83;100.00;101094.94;6213869;23;20054;-77
2023/09/29 04:37:19;;;;;;;11.00;3.95;;;;;;;16.83;100.00;101089.53;6218680;23;20009;-77
2023/09/29 04:39:45;;;;;;;5.65;3.50;;;;;;;16.91;100.00;101098.00;6187228;23;20004;-76
2023/09/29 04:42:10;;;;;;;5.73;3.50;;;;;;;16.96;100.00;101091.84;6218781;23;20038;-77
2023/09/29 04:47:58;;;;;;;5.43;3.63;;;;;;;17.00;100.00;101076.78;6213602;23;20059;-77
2023/09/29 04:53:45;;;;;;;7.60;3.47;;;;;;;16.96;100.00;101089.97;6213893;23;20015;-75
2023/09/29 05:03:18;;;;;;;10.85;3.88;;;;;;;16.98;100.00;101095.13;6214079;23;20016;-76
2023/09/29 05:09:06;;;;;;;8.30;4.07;;;;;;;16.99;100.00;101092.16;6214102;23;20027;-76
2023/09/29 05:11:31;;;;;;;5.13;3.85;;;;;;;16.98;100.00;101090.53;6217250;23;20044;-75
2023/09/29 05:13:56;;;;;;;7.53;4.05;;;;;;;16.92;100.00;101075.34;6188766;23;20384;-74
2023/09/29 05:16:22;;;;;;;8.20;4.07;;;;;;;16.95;100.00;101074.84;6187151;23;20464;-76
2023/09/29 05:18:48;;;;;;;7.75;4.40;;;;;;;16.93;100.00;101065.34;6192281;23;20313;-77
2023/09/29 05:21:14;;;;;;;7.35;3.72;;;;;;;16.96;100.00;101062.97;6213704;23;20004;-76
2023/09/29 05:27:01;;;;;;;10.60;4.07;;;;;;;17.02;100.00;101066.53;6214015;23;20066;-75
2023/09/29 05:32:48;;;;;;;7.18;4.20;;;;;;;17.05;100.00;101057.91;6213637;23;20313;-75
2023/09/29 05:38:35;;;;;;;4.85;3.83;;;;;;;17.04;100.00;101059.00;6213526;23;20306;-74
2023/09/29 05:44:21;;;;;;;4.85;3.80;;;;;;;17.03;100.00;101066.28;6213671;23;20238;-75
2023/09/29 05:50:09;;;;;;;5.32;3.97;;;;;;;17.13;100.00;101070.19;6213733;23;20024;-75
2023/09/29 05:55:56;;;;;;;5.70;4.18;;;;;;;17.12;100.00;101071.28;6213837;23;20050;-75
2023/09/29 06:01:43;;;;;;;8.00;4.13;;;;;;;17.20;100.00;101060.81;6213675;23;20018;-76
2023/09/29 06:10:52;;;;;;;6.68;3.97;;;;;;;17.31;100.00;101075.25;6213450;23;20386;-75
2023/09/29 06:13:17;;;;;;;5.53;4.07;;;;;;;17.32;100.00;101071.50;6216913;23;20338;-74
2023/09/29 06:19:05;;;;;;;8.43;4.35;;;;;;;17.48;100.00;101089.53;6213652;23;20036;-76
2023/09/29 06:24:51;;;;;;;7.95;4.00;;;;;;;17.63;100.00;101086.16;6218168;23;20310;-75
2023/09/29 06:27:17;;;;;;;7.03;3.80;;;;;;;17.65;100.00;101073.22;6186717;23;20012;-77
2023/09/29 06:33:04;;;;;;;8.30;3.75;;;;;;;17.78;100.00;101072.81;6213473;23;20235;-76
2023/09/29 06:35:29;;;;;;;7.35;4.20;;;;;;;17.83;100.00;101080.16;6213635;23;20012;-79
2023/09/29 06:37:55;;;;;;;8.57;3.65;;;;;;;17.83;100.00;101074.75;6218095;23;20374;-78
2023/09/29 06:40:20;;;;;;;5.80;3.70;;;;;;;17.87;100.00;101084.81;6187166;23;20036;-76
2023/09/29 06:42:45;;;;;;;7.23;4.07;;;;;;;17.88;100.00;101088.34;6186826;23;20292;-77
2023/09/29 06:45:10;;;;;;;7.53;4.50;;;;;;;17.90;100.00;101088.88;6144726;23;20262;-76
2023/09/29 06:47:36;;;;;;;7.65;3.88;;;;;;;17.93;100.00;101091.94;6213393;23;20012;-76
2023/09/29 06:50:01;;;;;;;7.97;4.15;;;;;;;17.96;100.00;101085.19;6218141;23;20012;-77
2023/09/29 06:52:26;;;;;;;5.93;3.92;;;;;;;17.95;100.00;101099.78;6213421;23;20031;-77
2023/09/29 06:58:13;;;;;;;6.82;3.75;;;;;;;18.06;100.00;101093.38;6213480;23;20227;-76
2023/09/29 07:04:00;;;;;;;7.20;3.40;;;;;;;18.14;100.00;101098.31;6213071;23;20239;-77
2023/09/29 07:06:25;;;;;;;4.77;3.60;;;;;;;18.19;100.00;101094.81;6186395;23;20009;-78
2023/09/29 07:08:51;;;;;;;5.97;3.67;;;;;;;18.25;100.00;101097.34;6217879;23;20334;-76
2023/09/29 07:14:38;;;;;;;6.93;3.60;;;;;;;18.27;100.00;101102.50;6213341;23;20023;-80
2023/09/29 07:20:25;;;;;;;4.88;3.20;;;;;;;18.53;100.00;101098.09;6213046;23;20263;-77
2023/09/29 07:26:12;;;;;;;6.10;4.05;;;;;;;18.87;100.00;101094.00;6213403;23;20313;-77
2023/09/29 07:28:37;;;;;;;11.27;4.05;;;;;;;19.18;100.00;101115.81;6212818;23;20100;-78
2023/09/29 07:31:02;;;;;;;4.70;3.20;;;;;;;19.81;100.00;101105.72;6217768;23;20379;-77
2023/09/29 07:36:49;;;;;;;5.93;3.08;;;;;;;20.94;100.00;101110.03;6213006;23;20254;-79
2023/09/29 07:39:15;;;;;;;3.95;3.10;;;;;;;20.98;100.00;101109.22;6212865;23;20437;-79
2023/09/29 07:41:41;;;;;;;8.75;3.72;;;;;;;21.04;100.00;101113.53;6213055;23;20099;-79
2023/09/29 07:47:28;;;;;;;4.07;3.08;;;;;;;21.38;100.00;101122.94;6212913;23;20389;-79
2023/09/29 07:49:53;;;;;;;7.67;2.93;;;;;;;21.86;100.00;101129.50;6217777;23;20013;-80
2023/09/29 07:52:25;;;;;;;4.57;3.00;;;;;;;22.26;100.00;101125.69;6186130;23;20009;-78
2023/09/29 07:54:51;;;;;;;4.47;2.70;;;;;;;22.51;100.00;101128.19;6191330;23;20341;-76
2023/09/29 07:57:16;;;;;;;6.53;3.50;;;;;;;22.42;100.00;101140.81;6212859;23;20263;-77
2023/09/29 07:59:41;;;;;;;4.93;3.03;;;;;;;22.52;100.00;101135.28;6215534;23;20004;-78
2023/09/29 08:05:28;;;;;;;5.68;2.95;;;;;;;22.26;100.00;101128.41;6212725;23;20293;-76
2023/09/29 08:07:53;;;;;;;5.63;2.72;;;;;;;22.33;100.00;101134.38;6212439;23;20008;-77
2023/09/29 08:13:41;;;;;;;5.57;2.70;;;;;;;22.58;100.00;101137.97;6212685;23;20023;-76
2023/09/29 08:16:06;;;;;;;5.10;2.80;;;;;;;22.64;100.00;101148.53;6212685;23;19996;-77
2023/09/29 08:18:31;;;;;;;4.47;3.03;;;;;;;22.63;100.00;101146.91;6191013;23;20035;-79
2023/09/29 08:20:57;;;;;;;6.70;3.10;;;;;;;22.63;100.00;101144.19;6212541;23;20009;-77
2023/09/29 08:26:44;;;;;;;4.82;2.90;;;;;;;22.54;100.00;101157.59;6214407;23;20312;-77
2023/09/29 08:29:10;;;;;;;5.03;2.83;;;;;;;22.45;100.00;101164.78;6213817;23;20008;-77
2023/09/29 08:31:35;;;;;;;7.45;3.55;;;;;;;;;;6219076;23;20098;-78
2023/09/29 08:34:03;;;;;;;4.95;3.10;;;;;;;22.55;100.00;101169.31;6214316;23;20323;-76
2023/09/29 08:36:29;;;;;;;7.65;3.80;;;;;;;22.68;100.00;101165.13;6218921;23;20031;-77
2023/09/29 08:38:54;;;;;;;5.88;3.35;;;;;;;22.77;100.00;101168.84;6214026;23;20020;-77
2023/09/29 08:44:42;;;;;;;6.03;3.08;;;;;;;23.00;100.00;101180.94;6214257;23;20238;-78
2023/09/29 08:50:29;;;;;;;5.10;3.25;;;;;;;;;;6214028;23;20417;-76
2023/09/29 08:56:16;;;;;;;6.30;3.55;;;;;;;22.43;100.00;101190.69;6214173;23;20412;-78
2023/09/29 08:58:42;;;;;;;7.63;3.80;;;;;;;22.86;100.00;101186.28;6214106;23;20011;-78
2023/09/29 09:04:30;;;;;;;4.97;2.60;;;;;;;23.27;100.00;101186.63;6214073;23;20103;-78
2023/09/29 09:06:55;;;;;;;5.35;3.20;;;;;;;23.30;100.00;101185.25;6218731;23;20455;-76
2023/09/29 09:09:23;;;;;;;6.75;2.88;;;;;;;23.43;100.00;101181.81;6214021;23;20009;-77
2023/09/29 09:11:48;;;;;;;5.75;3.10;;;;;;;23.70;100.00;101190.22;6218764;23;20013;-77
2023/09/29 09:14:15;;;;;;;6.90;3.05;;;;;;;23.69;100.00;101198.69;6214016;23;20012;-78
2023/09/29 09:16:40;;;;;;;6.93;3.38;;;;;;;23.23;100.00;101193.78;6214512;23;20279;-77
2023/09/29 09:19:09;;;;;;;4.25;3.00;;;;;;;22.87;100.00;101209.72;6217601;23;20036;-77
2023/09/29 09:21:34;;;;;;;5.57;3.35;;;;;;;22.52;100.00;101203.41;6213769;23;20035;-76
2023/09/29 09:23:59;;;;;;;5.73;2.90;;;;;;;22.45;100.00;101202.13;6218508;23;20020;-79
2023/09/29 09:26:28;;;;;;;4.57;3.13;;;;;;;22.03;100.00;101210.84;6187255;23;20240;-77
2023/09/29 09:28:53;;;;;;;5.40;3.45;;;;;;;21.51;100.00;101209.44;6216627;23;20009;-78
2023/09/29 09:31:18;;;;;;;6.83;3.70;;;;;;;21.38;100.00;101224.44;6215806;23;20338;-79
2023/09/29 09:33:51;;;;;;;6.27;3.23;;;;;;;21.32;100.00;101220.91;6187009;23;20239;-77
2023/09/29 09:36:17;;;;;;;5.85;3.25;;;;;;;21.08;100.00;101228.00;6192240;23;20258;-78
2023/09/29 09:38:43;;;;;;;6.20;3.97;;;;;;;20.97;100.00;101216.34;6187303;23;20408;-78
2023/09/29 09:41:09;;;;;;;4.95;3.50;;;;;;;21.01;100.00;101228.31;6192082;23;20261;-76
2023/09/29 09:47:00;;;;;;;5.15;3.40;;;;;;;21.18;100.00;101219.84;6213803;23;20062;-78
2023/09/29 09:49:36;;;;;;;7.07;3.70;;;;;;;21.31;100.00;101226.63;6187151;23;20008;-77
2023/09/29 09:52:12;;;;;;;6.18;3.30;;;;;;;21.42;100.00;101232.88;6213956;23;20315;-77
2023/09/29 09:54:49;;;;;;;8.15;3.20;;;;;;;21.39;100.00;101222.53;6201955;23;20012;-77
2023/09/29 09:57:22;;;;;;;7.20;3.72;;;;;;;21.40;100.00;101229.63;6213877;23;20341;-79
2023/09/29 10:03:14;;;;;;;4.57;2.60;;;;;;;21.84;100.00;101246.88;6213963;23;20329;-77
2023/09/29 10:05:41;;;;;;;5.07;3.28;;;;;;;22.09;100.00;101242.44;6218427;23;20008;-77
2023/09/29 10:08:09;;;;;;;7.05;3.58;;;;;;;22.07;100.00;101247.34;6213569;23;20019;-76
2023/09/29 10:10:37;;;;;;;6.38;3.13;;;;;;;22.06;100.00;101251.16;6188102;23;20079;-76
2023/09/29 10:16:24;;;;;;;9.45;3.20;;;;;;;21.83;100.00;101244.44;6213805;23;20038;-75
2023/09/29 10:22:22;;;;;;;6.45;3.17;;;;;;;21.54;100.00;101247.81;6213736;23;20065;-76
2023/09/29 10:28:09;;;;;;;8.30;3.38;;;;;;;21.58;100.00;101250.78;6218285;23;20444;-75
2023/09/29 10:30:35;;;;;;;6.07;3.30;;;;;;;21.82;100.00;101256.41;6213503;23;20004;-75
2023/09/29 10:33:11;;;;;;;5.97;3.20;;;;;;;21.96;100.00;101254.69;6187051;23;20004;-73
2023/09/29 10:38:59;;;;;;;7.22;3.40;;;;;;;21.74;100.00;101273.34;6213728;23;20070;-75
2023/09/29 10:41:25;;;;;;;9.55;3.78;;;;;;;21.61;100.00;101266.56;6218404;23;20012;-73
2023/09/29 10:43:50;;;;;;;5.93;3.28;;;;;;;21.59;100.00;101271.47;6213498;23;20038;-73
2023/09/29 10:46:22;;;;;;;8.55;3.50;;;;;;;21.57;100.00;101276.38;6217597;23;20370;-74
2023/09/29 10:48:49;;;;;;;5.78;3.20;;;;;;;21.50;100.00;101273.13;6213342;23;20016;-73
2023/09/29 10:51:27;;;;;;;6.68;3.10;;;;;;;21.36;100.00;101277.50;6188626;23;20005;-74
2023/09/29 10:53:54;;;;;;;5.80;2.80;;;;;;;21.10;100.00;101277.50;6214001;23;20013;-74
2023/09/29 10:56:24;;;;;;;5.65;3.30;;;;;;;21.15;100.00;101285.69;6186938;23;20004;-74
2023/09/29 10:58:52;;;;;;;4.82;2.90;;;;;;;21.13;100.00;101284.31;6191798;23;20012;-75
2023/09/29 11:01:28;;;;;;;7.50;3.67;;;;;;;21.11;100.00;101298.19;6186914;23;20000;-73
2023/09/29 11:03:57;;;;;;;6.55;3.22;;;;;;;21.07;100.00;101299.81;6218260;23;20345;-73
2023/09/29 11:06:22;;;;;;;6.63;3.42;;;;;;;21.21;100.00;101298.19;6213557;23;20311;-74
2023/09/29 11:08:57;;;;;;;4.68;3.22;;;;;;;21.53;100.00;101289.72;6213826;23;20062;-75
2023/09/29 11:11:25;;;;;;;5.65;3.30;;;;;;;21.96;100.00;101287.38;6216268;23;20449;-74
2023/09/29 11:13:57;;;;;;;7.25;3.40;;;;;;;22.21;100.00;101308.28;6186932;23;20012;-74
2023/09/29 11:16:27;;;;;;;4.97;2.95;;;;;;;22.35;100.00;101303.84;6218192;23;20016;-74
2023/09/29 11:18:56;;;;;;;5.93;3.63;;;;;;;22.46;100.00;101291.78;6213236;23;20425;-74
2023/09/29 11:21:41;;;;;;;7.03;3.33;;;;;;;22.56;100.00;101305.38;6218212;23;20023;-74
2023/09/29 11:24:11;;;;;;;9.02;3.83;;;;;;;22.45;100.00;101303.78;6185607;23;20008;-74
2023/09/29 11:26:40;;;;;;;4.18;2.83;;;;;;;22.59;100.00;101314.88;6190414;23;20012;-74
2023/09/29 11:29:08;;;;;;;3.92;2.75;;;;;;;22.66;100.00;101303.66;6213182;23;20012;-74
2023/09/29 11:31:33;;;;;;;5.07;3.30;;;;;;;22.69;100.00;101303.91;6213156;23;20443;-73
2023/09/29 11:33:59;;;;;;;5.88;3.55;;;;;;;22.69;100.00;101316.72;6217915;23;20005;-75
2023/09/29 11:36:27;;;;;;;6.18;3.10;;;;;;;22.42;100.00;101317.16;6186497;23;20349;-77
2023/09/29 11:38:52;;;;;;;5.80;2.92;;;;;;;22.18;100.00;101323.28;6191059;23;20434;-77
2023/09/29 11:41:18;;;;;;;3.80;2.95;;;;;;;21.98;100.00;101327.97;6213125;23;20128;-74
2023/09/29 11:43:45;;;;;;;5.68;2.92;;;;;;;22.00;100.00;101310.25;6213330;23;20011;-76
2023/09/29 11:46:11;;;;;;;4.28;2.95;;;;;;;22.16;100.00;101319.19;6218106;23;20012;-76
2023/09/29 11:48:36;;;;;;;7.22;3.05;;;;;;;22.15;100.00;101314.84;6212995;23;20015;-75
2023/09/29 11:51:03;;;;;;;8.25;3.95;;;;;;;22.07;100.00;101323.59;6217737;23;20116;-74
2023/09/29 11:56:50;;;;;;;4.78;2.95;;;;;;;21.71;100.00;101328.34;6213094;23;20457;-74
2023/09/29 12:02:37;;;;;;;5.63;3.13;;;;;;;20.87;100.00;101336.00;6214345;23;20016;-74
2023/09/29 12:05:07;;;;;;;8.35;3.50;;;;;;;20.27;100.00;101331.22;6187360;23;20331;-77
2023/09/29 12:10:54;;;;;;;5.93;3.95;;;;;;;19.28;100.00;101345.53;6214243;23;20596;-77
2023/09/29 12:13:19;;;;;;;6.37;4.37;;;;;;;19.07;100.00;101348.06;6214657;23;20005;-77
2023/09/29 12:15:45;;;;;;;7.87;3.93;;;;;;;18.92;100.00;101347.13;6218300;23;20324;-76
2023/09/29 12:18:11;;;;;;;10.07;4.90;;;;;;;18.79;100.00;101364.59;6214332;23;20239;-76
2023/09/29 12:20:38;;;;;;;5.68;4.57;;;;;;;18.77;100.00;101366.75;6219050;23;20438;-76
2023/09/29 12:23:06;;;;;;;6.75;4.22;;;;;;;18.74;100.00;101376.22;6214025;23;20008;-77
2023/09/29 12:28:52;;;;;;;5.45;3.90;;;;;;;18.79;100.00;101378.16;6214126;23;20268;-77
2023/09/29 12:31:18;;;;;;;7.20;4.27;;;;;;;18.61;100.00;101395.56;6218903;23;20385;-77
2023/09/29 12:33:45;;;;;;;6.60;4.60;;;;;;;18.57;100.00;101402.56;6187797;23;20247;-78
2023/09/29 12:39:31;;;;;;;6.65;4.75;;;;;;;18.29;100.00;101425.25;6214114;23;20038;-78
2023/09/29 12:45:21;;;;;;;5.20;3.50;;;;;;;18.13;100.00;101426.09;6214213;23;20699;-75
2023/09/29 12:47:50;;;;;;;3.88;3.42;;;;;;;18.12;100.00;101440.69;6214067;23;20448;-78
2023/09/29 12:50:16;;;;;;;4.05;2.42;;;;;;;18.24;100.00;101444.13;6192504;23;20017;-77
2023/09/29 12:52:44;;;;;;;5.63;2.95;;;;;;;18.17;100.00;101448.88;6213785;23;20083;-80
2023/09/29 12:55:11;;;;;;;5.88;3.00;;;;;;;18.08;100.00;101451.19;6189500;23;20039;-79
2023/09/29 12:57:36;;;;;;;3.13;1.90;;;;;;;18.08;100.00;101448.50;6189713;23;19996;-78
2023/09/29 13:00:05;;;;;;;5.75;2.38;;;;;;;18.04;100.00;101462.78;6213846;23;20005;-79
2023/09/29 13:05:59;;;;;;;3.90;2.05;;;;;;;17.87;100.00;101473.59;6214124;23;20062;-78
2023/09/29 13:08:25;;;;;;;;;;;;;;;17.83;100.00;101494.09;6192534;23;20016;-80
2023/09/29 13:10:50;;;;;;;5.53;1.92;;;;;;;17.63;100.00;101502.66;6212322;23;19950;-80
2023/09/29 13:13:15;;;;;;;4.13;1.90;;;;;;;17.49;100.00;101515.69;6190193;23;20005;-79
2023/09/29 13:19:04;;;;;;;3.67;2.30;;;;;;;17.59;100.00;101528.56;6214742;23;20042;-78
2023/09/29 13:21:33;;;;;;;4.75;2.42;;;;;;;17.60;100.00;101528.31;6190838;23;20005;-77
2023/09/29 13:27:47;;;;;;;6.95;2.67;;;;;;;17.59;100.00;101542.91;6213923;23;20019;-80
2023/09/29 13:37:55;;;;;;;5.30;2.85;;;;;;;17.00;100.00;101515.31;6154633;23;20019;-80
2023/09/29 13:44:04;;;;;;;6.57;2.05;;;;;;;17.03;100.00;101539.13;6214149;23;20088;-79
2023/09/29 13:50:14;;;;;;;5.50;2.30;;;;;;;17.42;100.00;101557.47;6213757;23;20031;-82
2023/09/29 14:02:46;;;;;;;11.40;2.53;;;;;;;17.96;100.00;101550.63;6094210;23;20524;-78
2023/09/29 14:08:33;;;;;;;7.68;2.45;;;;;;;18.62;100.00;101618.53;6092569;23;20055;-81
2023/09/29 14:14:20;;;;;;;6.43;2.03;;;;;;;18.77;100.00;101614.16;6092750;23;20018;-82
2023/09/29 14:20:08;;;;;;;10.73;2.67;;;;;;;18.51;100.00;101633.81;6092604;23;20086;-81
2023/09/29 14:25:55;;;;;;;6.47;2.90;;;;;;;18.33;100.00;101645.69;6092431;23;20021;-81
2023/09/29 14:28:20;;;;;;;11.35;2.97;;;;;;;18.23;100.00;101642.84;6092134;23;20010;-82
2023/09/29 14:34:07;;;;;;;9.63;3.45;;;;;;;18.42;100.00;101633.38;6213708;23;20019;-81
2023/09/29 14:36:32;;;;;;;8.93;4.43;;;;;;;18.55;100.00;101646.59;6215494;23;20016;-82
2023/09/29 14:46:16;;;;;;;10.70;3.80;;;;;;;18.54;100.00;101676.66;6213711;23;20096;-83
2023/09/29 14:48:42;;;;;;;8.60;3.22;;;;;;;18.43;100.00;101669.41;6190411;23;20016;-83
2023/09/29 14:51:09;;;;;;;11.38;3.63;;;;;;;18.39;100.00;101684.50;6187962;23;20015;-82
2023/09/29 14:53:36;;;;;;;11.35;3.40;;;;;;;18.32;100.00;101691.97;6213581;23;20088;-82
2023/09/29 14:56:09;;;;;;;15.23;3.67;;;;;;;18.32;100.00;101694.69;6218234;23;20031;-84
2023/09/29 15:01:56;;;;;;;11.05;3.60;;;;;;;18.41;100.00;101698.63;6213489;23;20043;-82
2023/09/29 15:07:43;;;;;;;12.85;3.33;;;;;;;18.25;100.00;101711.09;6213629;23;20457;-82
2023/09/29 15:13:31;;;;;;;13.07;3.05;;;;;;;18.34;100.00;101717.75;6214129;23;20103;-82
2023/09/29 15:39:45;;;;;;;10.13;2.90;;;;;;;17.94;100.00;101753.84;5979461;24;20023;-82
2023/09/29 15:46:18;;;;;;;10.05;2.95;;;;;;;17.86;100.00;101792.06;6093051;23;20024;-82
2023/09/29 15:58:48;;;;;;;9.77;2.97;;;;;;;17.56;100.00;101770.56;6151846;23;20052;-82
2023/09/29 16:01:20;;;;;;;9.32;3.08;;;;;;;17.46;100.00;101764.13;6156526;23;20009;-84
2023/09/29 16:07:07;;;;;;;9.43;3.45;;;;;;;17.79;100.00;101820.34;6151954;23;20067;-82
2023/09/29 16:30:27;;;;;;;7.78;3.03;;;;;;;17.14;100.00;101805.06;6213854;23;20055;-84
2023/09/29 16:43:04;;;;;;;8.68;2.97;;;;;;;16.56;100.00;101831.91;6093020;23;20523;-81
2023/09/29 16:55:25;;;;;;;11.35;4.18;;;;;;;16.60;100.00;101869.03;6029077;23;20423;-79